createdAt,value
2019-01-02T00:00:03.597Z,28.50
2019-01-02T00:00:43.421Z,28.50
2019-01-02T00:01:22.743Z,28.40
2019-01-02T00:02:02.237Z,28.40
2019-01-02T00:02:41.010Z,28.40
2019-01-02T00:03:20.370Z,28.40
2019-01-02T00:03:59.449Z,28.40
2019-01-02T00:04:38.553Z,28.40
2019-01-02T00:05:17.748Z,28.40
2019-01-02T00:05:56.891Z,28.40
2019-01-02T00:06:36.268Z,28.40
2019-01-02T00:07:15.784Z,28.40
2019-01-02T00:07:55.200Z,28.40
2019-01-02T00:08:34.826Z,28.40
2019-01-02T00:09:14.286Z,28.40
2019-01-02T00:09:53.440Z,28.40
2019-01-02T00:10:32.750Z,28.40
2019-01-02T00:11:12.267Z,28.40
2019-01-02T00:11:51.284Z,28.40
2019-01-02T00:12:30.359Z,28.50
2019-01-02T00:13:09.552Z,28.50
2019-01-02T00:13:48.237Z,28.50
2019-01-02T00:14:27.451Z,28.50
2019-01-02T00:15:06.808Z,28.50
2019-01-02T00:15:47.668Z,28.50
2019-01-02T00:16:28.990Z,28.40
2019-01-02T00:17:07.678Z,28.50
2019-01-02T00:17:46.325Z,28.40
2019-01-02T00:18:25.956Z,28.40
2019-01-02T00:19:05.490Z,28.40
2019-01-02T00:19:44.369Z,28.40
2019-01-02T00:20:23.047Z,28.40
2019-01-02T00:21:01.839Z,28.40
2019-01-02T00:21:41.217Z,28.40
2019-01-02T00:22:19.823Z,28.40
2019-01-02T00:22:58.969Z,28.50
2019-01-02T00:23:41.036Z,28.50
2019-01-02T00:24:19.736Z,28.50
2019-01-02T00:24:58.381Z,28.50
2019-01-02T00:25:37.419Z,28.50
2019-01-02T00:26:16.362Z,28.50
2019-01-02T00:26:55.935Z,28.50
2019-01-02T00:27:35.235Z,28.50
2019-01-02T00:28:14.658Z,28.50
2019-01-02T00:28:53.350Z,28.50
2019-01-02T00:29:33.346Z,28.50
2019-01-02T00:30:12.367Z,28.50
2019-01-02T00:30:52.332Z,28.50
2019-01-02T00:31:31.124Z,28.50
2019-01-02T00:32:09.883Z,28.50
2019-01-02T00:32:48.892Z,28.40
2019-01-02T00:33:27.579Z,28.40
2019-01-02T00:34:07.204Z,28.40
2019-01-02T00:34:45.857Z,28.40
2019-01-02T00:35:25.274Z,28.40
2019-01-02T00:36:04.975Z,28.40
2019-01-02T00:36:44.294Z,28.40
2019-01-02T00:37:23.978Z,28.40
2019-01-02T00:38:03.468Z,28.40
2019-01-02T00:38:42.587Z,28.50
2019-01-02T00:39:21.630Z,28.50
2019-01-02T00:40:00.422Z,28.50
2019-01-02T00:40:39.460Z,28.50
2019-01-02T00:41:18.593Z,28.50
2019-01-02T00:41:59.904Z,28.50
2019-01-02T00:42:39.341Z,28.60
2019-01-02T00:43:18.336Z,28.60
2019-01-02T00:43:57.919Z,28.60
2019-01-02T00:44:37.325Z,28.60
2019-01-02T00:45:22.208Z,28.60
2019-01-02T00:45:57.932Z,28.60
2019-01-02T00:46:37.063Z,28.60
2019-01-02T00:47:16.544Z,28.60
2019-01-02T00:47:55.791Z,28.60
2019-01-02T00:48:34.472Z,28.60
2019-01-02T00:49:13.317Z,28.60
2019-01-02T00:49:52.004Z,28.70
2019-01-02T00:50:31.238Z,28.60
2019-01-02T00:51:09.907Z,28.60
2019-01-02T00:51:49.044Z,28.70
2019-01-02T00:52:28.830Z,28.60
2019-01-02T00:53:07.516Z,28.60
2019-01-02T00:53:46.849Z,28.60
2019-01-02T00:54:26.015Z,28.70
2019-01-02T00:55:05.386Z,28.70
2019-01-02T00:55:45.073Z,28.70
2019-01-02T00:56:24.151Z,28.70
2019-01-02T00:57:03.220Z,28.70
2019-01-02T00:57:41.860Z,28.70
2019-01-02T00:58:20.501Z,28.70
2019-01-02T00:58:59.869Z,28.70
2019-01-02T00:59:42.168Z,28.70
2019-01-02T01:00:30.548Z,28.70
2019-01-02T01:01:09.858Z,28.70
2019-01-02T01:01:50.233Z,28.70
2019-01-02T01:02:29.942Z,28.70
2019-01-02T01:03:09.242Z,28.80
2019-01-02T01:03:49.374Z,28.80
2019-01-02T01:04:28.827Z,28.80
2019-01-02T01:05:07.911Z,28.70
2019-01-02T01:05:47.457Z,28.80
2019-01-02T01:06:27.765Z,28.70
2019-01-02T01:07:07.418Z,28.70
2019-01-02T01:07:46.292Z,28.70
2019-01-02T01:08:25.646Z,28.70
2019-01-02T01:09:04.647Z,28.80
2019-01-02T01:09:44.410Z,28.70
2019-01-02T01:10:23.172Z,28.70
2019-01-02T01:11:02.069Z,28.80
2019-01-02T01:11:41.333Z,28.80
2019-01-02T01:12:21.120Z,28.80
2019-01-02T01:13:00.186Z,28.70
2019-01-02T01:13:39.594Z,28.80
2019-01-02T01:14:18.571Z,28.80
2019-01-02T01:14:57.772Z,28.80
2019-01-02T01:15:37.202Z,28.80
2019-01-02T01:16:15.846Z,28.80
2019-01-02T01:16:55.104Z,28.80
2019-01-02T01:17:34.667Z,28.80
2019-01-02T01:18:13.465Z,28.80
2019-01-02T01:18:54.500Z,28.80
2019-01-02T01:19:33.248Z,28.80
2019-01-02T01:20:13.066Z,28.80
2019-01-02T01:20:51.937Z,28.80
2019-01-02T01:21:31.328Z,28.80
2019-01-02T01:22:10.788Z,28.80
2019-01-02T01:22:49.734Z,28.80
2019-01-02T01:23:29.241Z,28.80
2019-01-02T01:24:08.159Z,28.80
2019-01-02T01:24:47.591Z,28.80
2019-01-02T01:25:26.590Z,28.80
2019-01-02T01:26:05.431Z,28.80
2019-01-02T01:26:44.339Z,28.90
2019-01-02T01:27:23.698Z,28.90
2019-01-02T01:28:02.991Z,28.80
2019-01-02T01:28:41.711Z,28.90
2019-01-02T01:29:20.994Z,28.90
2019-01-02T01:30:00.538Z,29.00
2019-01-02T01:30:39.313Z,29.00
2019-01-02T01:31:20.042Z,29.10
2019-01-02T01:31:59.543Z,29.10
2019-01-02T01:32:38.832Z,29.10
2019-01-02T01:33:17.657Z,29.20
2019-01-02T01:33:56.356Z,29.20
2019-01-02T01:34:35.856Z,29.30
2019-01-02T01:35:16.553Z,29.30
2019-01-02T01:35:56.183Z,29.30
2019-01-02T01:36:35.801Z,29.40
2019-01-02T01:37:14.805Z,29.40
2019-01-02T01:37:58.147Z,29.40
2019-01-02T01:38:36.948Z,29.40
2019-01-02T01:39:15.620Z,29.40
2019-01-02T01:39:54.325Z,29.40
2019-01-02T01:40:33.546Z,29.30
2019-01-02T01:41:12.251Z,29.30
2019-01-02T01:41:51.233Z,29.20
2019-01-02T01:42:30.587Z,29.20
2019-01-02T01:43:09.346Z,29.10
2019-01-02T01:43:48.424Z,29.10
2019-01-02T01:44:27.221Z,29.20
2019-01-02T01:45:06.278Z,29.20
2019-01-02T01:45:44.974Z,29.20
2019-01-02T01:46:24.112Z,29.20
2019-01-02T01:47:03.640Z,29.20
2019-01-02T01:47:43.186Z,29.20
2019-01-02T01:48:23.407Z,29.20
2019-01-02T01:49:02.883Z,29.20
2019-01-02T01:49:42.568Z,29.20
2019-01-02T01:50:21.820Z,29.20
2019-01-02T01:51:02.152Z,29.20
2019-01-02T01:51:41.392Z,29.20
2019-01-02T01:52:20.606Z,29.20
2019-01-02T01:53:00.388Z,29.20
2019-01-02T01:53:39.992Z,29.20
2019-01-02T01:54:19.108Z,29.30
2019-01-02T01:54:57.767Z,29.30
2019-01-02T01:55:36.529Z,29.30
2019-01-02T01:56:15.122Z,29.30
2019-01-02T01:56:54.434Z,29.40
2019-01-02T01:57:34.090Z,29.40
2019-01-02T01:58:13.305Z,29.30
2019-01-02T01:58:53.021Z,29.30
2019-01-02T01:59:32.616Z,29.30
2019-01-02T02:00:14.952Z,29.30
2019-01-02T02:00:54.339Z,29.30
2019-01-02T02:01:33.575Z,29.20
2019-01-02T02:02:13.163Z,29.30
2019-01-02T02:02:53.833Z,29.40
2019-01-02T02:03:33.447Z,29.40
2019-01-02T02:04:12.804Z,29.40
2019-01-02T02:04:54.639Z,29.40
2019-01-02T02:05:33.947Z,29.40
2019-01-02T02:06:13.346Z,29.40
2019-01-02T02:06:52.547Z,29.40
2019-01-02T02:07:31.548Z,29.40
2019-01-02T02:08:10.491Z,29.40
2019-01-02T02:08:49.598Z,29.40
2019-01-02T02:09:28.966Z,29.40
2019-01-02T02:10:08.137Z,29.40
2019-01-02T02:10:46.865Z,29.30
2019-01-02T02:11:26.055Z,29.40
2019-01-02T02:12:06.348Z,29.40
2019-01-02T02:12:45.919Z,29.40
2019-01-02T02:13:25.254Z,29.40
2019-01-02T02:14:04.350Z,29.40
2019-01-02T02:14:43.829Z,29.40
2019-01-02T02:15:22.452Z,29.40
2019-01-02T02:16:01.488Z,29.50
2019-01-02T02:16:41.084Z,29.50
2019-01-02T02:17:20.004Z,29.40
2019-01-02T02:17:58.794Z,29.40
2019-01-02T02:18:37.416Z,29.40
2019-01-02T02:19:16.840Z,29.50
2019-01-02T02:19:56.172Z,29.50
2019-01-02T02:20:35.857Z,29.50
2019-01-02T02:21:15.060Z,29.50
2019-01-02T02:21:54.212Z,29.50
2019-01-02T02:22:33.612Z,29.50
2019-01-02T02:23:13.021Z,29.50
2019-01-02T02:23:52.106Z,29.50
2019-01-02T02:24:30.728Z,29.50
2019-01-02T02:25:12.049Z,29.50
2019-01-02T02:25:50.805Z,29.50
2019-01-02T02:26:32.258Z,29.60
2019-01-02T02:27:11.651Z,29.60
2019-01-02T02:27:50.528Z,29.60
2019-01-02T02:28:29.591Z,29.60
2019-01-02T02:29:08.375Z,29.60
2019-01-02T02:29:47.406Z,29.60
2019-01-02T02:30:26.818Z,29.60
2019-01-02T02:31:06.338Z,29.70
2019-01-02T02:31:45.338Z,29.70
2019-01-02T02:32:24.172Z,29.70
2019-01-02T02:33:03.745Z,29.60
2019-01-02T02:33:42.566Z,29.50
2019-01-02T02:34:21.562Z,29.50
2019-01-02T02:35:01.159Z,29.50
2019-01-02T02:35:39.829Z,29.40
2019-01-02T02:36:20.800Z,29.40
2019-01-02T02:36:59.723Z,29.40
2019-01-02T02:37:38.817Z,29.40
2019-01-02T02:38:18.038Z,29.40
2019-01-02T02:38:57.582Z,29.50
2019-01-02T02:39:36.531Z,29.50
2019-01-02T02:40:16.268Z,29.50
2019-01-02T02:40:55.048Z,29.50
2019-01-02T02:41:35.380Z,29.50
2019-01-02T02:42:18.091Z,29.50
2019-01-02T02:42:57.203Z,29.50
2019-01-02T02:43:36.370Z,29.50
2019-01-02T02:44:15.430Z,29.50
2019-01-02T02:44:54.900Z,29.50
2019-01-02T02:45:33.924Z,29.60
2019-01-02T02:46:13.081Z,29.60
2019-01-02T02:46:52.408Z,29.60
2019-01-02T02:47:31.598Z,29.50
2019-01-02T02:48:10.555Z,29.50
2019-01-02T02:48:49.943Z,29.50
2019-01-02T02:49:29.339Z,29.60
2019-01-02T02:50:08.982Z,29.50
2019-01-02T02:50:48.308Z,29.60
2019-01-02T02:51:27.642Z,29.50
2019-01-02T02:52:07.250Z,29.50
2019-01-02T02:52:46.422Z,29.60
2019-01-02T02:53:25.458Z,29.60
2019-01-02T02:54:04.562Z,29.70
2019-01-02T02:54:43.651Z,29.70
2019-01-02T02:55:27.996Z,29.70
2019-01-02T02:56:06.618Z,29.70
2019-01-02T02:56:46.093Z,29.70
2019-01-02T02:57:25.156Z,29.70
2019-01-02T02:58:04.416Z,29.70
2019-01-02T02:58:43.192Z,29.70
2019-01-02T02:59:22.216Z,29.70
2019-01-02T03:00:01.238Z,29.80
2019-01-02T03:00:40.561Z,29.80
2019-01-02T03:01:19.638Z,29.80
2019-01-02T03:01:59.125Z,29.90
2019-01-02T03:02:38.690Z,29.90
2019-01-02T03:03:18.157Z,29.90
2019-01-02T03:03:57.532Z,29.90
2019-01-02T03:04:37.131Z,29.90
2019-01-02T03:05:17.351Z,29.90
2019-01-02T03:05:56.988Z,29.90
2019-01-02T03:06:35.649Z,29.90
2019-01-02T03:07:15.398Z,29.90
2019-01-02T03:07:54.353Z,29.90
2019-01-02T03:08:33.471Z,29.90
2019-01-02T03:09:13.069Z,29.90
2019-01-02T03:09:55.647Z,29.90
2019-01-02T03:10:36.223Z,29.80
2019-01-02T03:11:15.990Z,29.80
2019-01-02T03:11:55.521Z,29.80
2019-01-02T03:12:34.170Z,29.90
2019-01-02T03:13:13.297Z,29.80
2019-01-02T03:13:52.584Z,29.80
2019-01-02T03:14:31.698Z,29.80
2019-01-02T03:15:11.446Z,29.80
2019-01-02T03:15:50.930Z,29.80
2019-01-02T03:16:30.273Z,29.80
2019-01-02T03:17:09.830Z,29.80
2019-01-02T03:17:49.584Z,29.80
2019-01-02T03:18:28.901Z,29.80
2019-01-02T03:19:08.235Z,29.80
2019-01-02T03:19:47.414Z,29.80
2019-01-02T03:20:26.371Z,29.80
2019-01-02T03:21:05.664Z,29.80
2019-01-02T03:21:44.398Z,29.80
2019-01-02T03:22:23.388Z,29.80
2019-01-02T03:23:03.833Z,29.80
2019-01-02T03:23:42.844Z,29.80
2019-01-02T03:24:22.221Z,29.90
2019-01-02T03:25:01.353Z,29.90
2019-01-02T03:25:40.711Z,30.00
2019-01-02T03:26:20.431Z,30.00
2019-01-02T03:26:59.209Z,30.00
2019-01-02T03:27:40.017Z,30.00
2019-01-02T03:28:19.119Z,30.00
2019-01-02T03:29:00.734Z,30.00
2019-01-02T03:29:40.219Z,30.00
2019-01-02T03:30:21.372Z,30.00
2019-01-02T03:31:00.911Z,30.00
2019-01-02T03:31:40.338Z,30.00
2019-01-02T03:32:19.821Z,30.00
2019-01-02T03:32:58.717Z,30.00
2019-01-02T03:33:37.588Z,30.10
2019-01-02T03:34:16.296Z,30.10
2019-01-02T03:34:55.011Z,30.10
2019-01-02T03:35:34.038Z,30.10
2019-01-02T03:36:13.351Z,30.10
2019-01-02T03:36:52.651Z,30.10
2019-01-02T03:37:31.987Z,30.20
2019-01-02T03:38:11.295Z,30.20
2019-01-02T03:38:51.046Z,30.30
2019-01-02T03:39:30.252Z,30.30
2019-01-02T03:40:09.257Z,30.30
2019-01-02T03:40:51.273Z,30.30
2019-01-02T03:41:30.283Z,30.30
2019-01-02T03:42:09.304Z,30.30
2019-01-02T03:42:48.030Z,30.40
2019-01-02T03:43:27.551Z,30.40
2019-01-02T03:44:06.190Z,30.40
2019-01-02T03:44:44.785Z,30.40
2019-01-02T03:45:24.098Z,30.40
2019-01-02T03:46:03.255Z,30.40
2019-01-02T03:46:42.539Z,30.40
2019-01-02T03:47:22.066Z,30.40
2019-01-02T03:48:01.890Z,30.40
2019-01-02T03:48:41.712Z,30.30
2019-01-02T03:49:21.079Z,30.30
2019-01-02T03:50:00.441Z,30.30
2019-01-02T03:50:39.501Z,30.30
2019-01-02T03:51:19.020Z,30.30
2019-01-02T03:51:58.001Z,30.30
2019-01-02T03:52:38.362Z,30.30
2019-01-02T03:53:17.038Z,30.40
2019-01-02T03:53:56.026Z,30.30
2019-01-02T03:54:34.698Z,30.30
2019-01-02T03:55:14.072Z,30.30
2019-01-02T03:55:53.298Z,30.40
2019-01-02T03:56:32.066Z,30.40
2019-01-02T03:57:11.236Z,30.40
2019-01-02T03:57:50.606Z,30.40
2019-01-02T03:58:29.381Z,30.40
2019-01-02T03:59:08.013Z,30.40
2019-01-02T03:59:46.707Z,30.50
2019-01-02T04:00:28.840Z,30.50
2019-01-02T04:01:07.537Z,30.50
2019-01-02T04:01:49.202Z,30.50
2019-01-02T04:02:30.795Z,30.50
2019-01-02T04:03:09.929Z,30.50
2019-01-02T04:03:48.657Z,30.60
2019-01-02T04:04:27.346Z,30.50
2019-01-02T04:05:06.208Z,30.50
2019-01-02T04:05:45.306Z,30.50
2019-01-02T04:06:24.760Z,30.50
2019-01-02T04:07:03.427Z,30.50
2019-01-02T04:07:42.228Z,30.50
2019-01-02T04:08:21.394Z,30.50
2019-01-02T04:09:02.569Z,30.50
2019-01-02T04:09:41.957Z,30.50
2019-01-02T04:10:21.271Z,30.50
2019-01-02T04:11:00.645Z,30.50
2019-01-02T04:11:39.434Z,30.50
2019-01-02T04:12:21.161Z,30.50
2019-01-02T04:13:00.668Z,30.50
2019-01-02T04:13:39.451Z,30.50
2019-01-02T04:14:18.217Z,30.50
2019-01-02T04:14:57.570Z,30.50
2019-01-02T04:15:36.728Z,30.50
2019-01-02T04:16:15.751Z,30.50
2019-01-02T04:16:55.076Z,30.50
2019-01-02T04:17:34.705Z,30.50
2019-01-02T04:18:13.425Z,30.60
2019-01-02T04:18:52.810Z,30.60
2019-01-02T04:19:31.526Z,30.60
2019-01-02T04:20:10.202Z,30.60
2019-01-02T04:20:49.621Z,30.70
2019-01-02T04:21:28.271Z,30.70
2019-01-02T04:22:06.933Z,30.70
2019-01-02T04:22:45.780Z,30.70
2019-01-02T04:23:25.233Z,30.70
2019-01-02T04:24:04.563Z,30.70
2019-01-02T04:24:44.076Z,30.70
2019-01-02T04:25:23.487Z,30.70
2019-01-02T04:26:05.335Z,30.70
2019-01-02T04:26:44.780Z,30.70
2019-01-02T04:27:23.446Z,30.70
2019-01-02T04:28:03.072Z,30.70
2019-01-02T04:28:42.371Z,30.80
2019-01-02T04:29:21.828Z,30.80
2019-01-02T04:30:00.461Z,30.80
2019-01-02T04:30:39.124Z,30.80
2019-01-02T04:31:17.912Z,30.80
2019-01-02T04:31:56.624Z,30.80
2019-01-02T04:32:35.674Z,30.80
2019-01-02T04:33:15.120Z,30.80
2019-01-02T04:33:54.504Z,30.80
2019-01-02T04:34:34.003Z,30.80
2019-01-02T04:35:13.547Z,30.80
2019-01-02T04:35:52.237Z,30.90
2019-01-02T04:36:31.484Z,30.90
2019-01-02T04:37:10.108Z,30.90
2019-01-02T04:37:48.761Z,30.90
2019-01-02T04:38:27.711Z,30.80
2019-01-02T04:39:10.033Z,30.80
2019-01-02T04:39:48.661Z,30.80
2019-01-02T04:40:27.829Z,30.90
2019-01-02T04:41:06.599Z,30.90
2019-01-02T04:41:45.767Z,30.90
2019-01-02T04:42:24.485Z,30.90
2019-01-02T04:43:04.056Z,30.90
2019-01-02T04:43:43.323Z,30.90
2019-01-02T04:44:22.025Z,30.90
2019-01-02T04:45:01.378Z,30.90
2019-01-02T04:45:42.687Z,30.90
2019-01-02T04:46:21.875Z,30.80
2019-01-02T04:47:01.274Z,30.80
2019-01-02T04:47:43.194Z,30.80
2019-01-02T04:48:21.875Z,30.80
2019-01-02T04:49:00.666Z,30.80
2019-01-02T04:49:39.733Z,30.80
2019-01-02T04:50:19.116Z,30.80
2019-01-02T04:50:58.431Z,30.80
2019-01-02T04:51:37.734Z,30.80
2019-01-02T04:52:16.411Z,30.80
2019-01-02T04:52:55.069Z,30.80
2019-01-02T04:53:33.839Z,30.80
2019-01-02T04:54:12.538Z,30.80
2019-01-02T04:54:51.137Z,30.80
2019-01-02T04:55:29.967Z,30.80
2019-01-02T04:56:08.923Z,30.80
2019-01-02T04:56:48.008Z,30.80
2019-01-02T04:57:26.791Z,30.80
2019-01-02T04:58:06.331Z,30.70
2019-01-02T04:58:45.634Z,30.70
2019-01-02T04:59:25.136Z,30.80
2019-01-02T05:00:04.612Z,30.80
2019-01-02T05:00:43.165Z,30.80
2019-01-02T05:01:21.951Z,30.70
2019-01-02T05:02:00.869Z,30.80
2019-01-02T05:02:39.705Z,30.80
2019-01-02T05:03:18.378Z,30.80
2019-01-02T05:03:57.008Z,30.80
2019-01-02T05:04:36.254Z,30.80
2019-01-02T05:05:14.967Z,30.80
2019-01-02T05:05:53.593Z,30.80
2019-01-02T05:06:32.295Z,30.80
2019-01-02T05:07:11.194Z,30.80
2019-01-02T05:07:50.333Z,30.80
2019-01-02T05:08:29.792Z,30.90
2019-01-02T05:09:10.158Z,30.90
2019-01-02T05:09:49.393Z,30.90
2019-01-02T05:10:28.880Z,30.90
2019-01-02T05:11:10.398Z,30.90
2019-01-02T05:11:49.469Z,30.90
2019-01-02T05:12:28.568Z,31.00
2019-01-02T05:13:07.226Z,31.00
2019-01-02T05:13:46.527Z,31.00
2019-01-02T05:14:25.176Z,31.00
2019-01-02T05:15:04.456Z,31.00
2019-01-02T05:15:43.116Z,31.00
2019-01-02T05:16:21.760Z,31.00
2019-01-02T05:17:01.092Z,31.00
2019-01-02T05:17:40.448Z,31.00
2019-01-02T05:18:19.990Z,30.90
2019-01-02T05:18:59.007Z,30.90
2019-01-02T05:19:38.452Z,30.90
2019-01-02T05:20:18.664Z,30.90
2019-01-02T05:20:58.140Z,30.90
2019-01-02T05:21:37.389Z,30.90
2019-01-02T05:22:16.841Z,30.90
2019-01-02T05:22:55.680Z,30.90
2019-01-02T05:23:34.454Z,30.90
2019-01-02T05:24:13.034Z,30.90
2019-01-02T05:24:53.096Z,30.90
2019-01-02T05:25:31.796Z,30.90
2019-01-02T05:26:10.879Z,31.00
2019-01-02T05:26:50.164Z,31.00
2019-01-02T05:27:29.410Z,30.90
2019-01-02T05:28:08.695Z,31.00
2019-01-02T05:28:48.218Z,31.00
2019-01-02T05:29:26.792Z,31.00
2019-01-02T05:30:05.450Z,31.00
2019-01-02T05:30:45.048Z,31.10
2019-01-02T05:31:23.719Z,31.10
2019-01-02T05:32:02.455Z,31.00
2019-01-02T05:32:41.181Z,31.00
2019-01-02T05:33:20.469Z,31.00
2019-01-02T05:33:59.108Z,31.00
2019-01-02T05:34:38.468Z,31.00
2019-01-02T05:35:17.208Z,31.00
2019-01-02T05:35:56.357Z,31.00
2019-01-02T05:36:35.012Z,31.00
2019-01-02T05:37:13.666Z,31.00
2019-01-02T05:37:55.851Z,31.00
2019-01-02T05:38:34.450Z,31.00
2019-01-02T05:39:13.485Z,31.00
2019-01-02T05:39:52.421Z,31.10
2019-01-02T05:40:31.588Z,31.10
2019-01-02T05:41:10.309Z,31.10
2019-01-02T05:41:49.834Z,31.00
2019-01-02T05:42:28.945Z,31.10
2019-01-02T05:43:07.766Z,31.00
2019-01-02T05:43:46.495Z,31.10
2019-01-02T05:44:25.841Z,31.10
2019-01-02T05:45:04.586Z,31.10
2019-01-02T05:45:43.217Z,31.10
2019-01-02T05:46:22.351Z,31.20
2019-01-02T05:47:01.264Z,31.20
2019-01-02T05:47:41.391Z,31.20
2019-01-02T05:48:21.774Z,31.20
2019-01-02T05:49:00.966Z,31.20
2019-01-02T05:49:40.277Z,31.20
2019-01-02T05:50:19.011Z,31.20
2019-01-02T05:50:58.373Z,31.20
2019-01-02T05:51:37.843Z,31.20
2019-01-02T05:52:16.927Z,31.20
2019-01-02T05:52:55.592Z,31.20
2019-01-02T05:53:34.428Z,31.20
2019-01-02T05:54:13.398Z,31.20
2019-01-02T05:54:52.688Z,31.20
2019-01-02T05:55:31.734Z,31.20
2019-01-02T05:56:11.061Z,31.20
2019-01-02T05:56:50.528Z,31.20
2019-01-02T05:57:29.155Z,31.20
2019-01-02T05:58:07.800Z,31.20
2019-01-02T05:58:46.482Z,31.20
2019-01-02T05:59:25.285Z,31.20
2019-01-02T06:00:06.827Z,31.20
2019-01-02T06:00:45.635Z,31.20
2019-01-02T06:01:24.343Z,31.20
2019-01-02T06:02:03.418Z,31.30
2019-01-02T06:02:42.301Z,31.20
2019-01-02T06:03:20.984Z,31.30
2019-01-02T06:03:59.591Z,31.30
2019-01-02T06:04:38.660Z,31.30
2019-01-02T06:05:17.949Z,31.30
2019-01-02T06:05:56.751Z,31.30
2019-01-02T06:06:35.486Z,31.30
2019-01-02T06:07:14.536Z,31.30
2019-01-02T06:07:53.169Z,31.30
2019-01-02T06:08:32.639Z,31.30
2019-01-02T06:09:12.431Z,31.30
2019-01-02T06:09:51.207Z,31.30
2019-01-02T06:10:34.483Z,31.30
2019-01-02T06:11:13.760Z,31.30
2019-01-02T06:11:53.488Z,31.40
2019-01-02T06:12:32.952Z,31.40
2019-01-02T06:13:12.158Z,31.30
2019-01-02T06:13:51.375Z,31.30
2019-01-02T06:14:30.575Z,31.30
2019-01-02T06:15:09.866Z,31.30
2019-01-02T06:15:57.380Z,31.30
2019-01-02T06:16:31.033Z,31.30
2019-01-02T06:17:10.508Z,31.30
2019-01-02T06:17:49.286Z,31.30
2019-01-02T06:18:27.950Z,31.30
2019-01-02T06:19:06.728Z,31.30
2019-01-02T06:19:45.599Z,31.40
2019-01-02T06:20:24.570Z,31.30
2019-01-02T06:21:03.806Z,31.30
2019-01-02T06:21:43.112Z,31.30
2019-01-02T06:22:21.846Z,31.30
2019-01-02T06:23:03.615Z,31.30
2019-01-02T06:23:42.786Z,31.40
2019-01-02T06:24:21.476Z,31.30
2019-01-02T06:25:00.394Z,31.40
2019-01-02T06:25:39.041Z,31.40
2019-01-02T06:26:18.312Z,31.40
2019-01-02T06:26:57.383Z,31.40
2019-01-02T06:27:36.666Z,31.40
2019-01-02T06:28:15.972Z,31.40
2019-01-02T06:28:55.961Z,31.40
2019-01-02T06:29:35.138Z,31.40
2019-01-02T06:30:16.312Z,31.40
2019-01-02T06:30:55.543Z,31.40
2019-01-02T06:31:34.281Z,31.40
2019-01-02T06:32:13.569Z,31.40
2019-01-02T06:32:52.158Z,31.40
2019-01-02T06:33:30.895Z,31.40
2019-01-02T06:34:10.678Z,31.40
2019-01-02T06:34:49.254Z,31.40
2019-01-02T06:35:28.157Z,31.40
2019-01-02T06:36:07.655Z,31.40
2019-01-02T06:36:46.829Z,31.40
2019-01-02T06:37:25.992Z,31.40
2019-01-02T06:38:05.345Z,31.50
2019-01-02T06:38:44.478Z,31.40
2019-01-02T06:39:23.835Z,31.50
2019-01-02T06:40:02.674Z,31.40
2019-01-02T06:40:41.262Z,31.40
2019-01-02T06:41:19.891Z,31.40
2019-01-02T06:41:58.787Z,31.40
2019-01-02T06:42:39.147Z,31.40
2019-01-02T06:43:17.883Z,31.40
2019-01-02T06:43:56.933Z,31.40
2019-01-02T06:44:35.617Z,31.40
2019-01-02T06:45:16.208Z,31.40
2019-01-02T06:45:57.788Z,31.40
2019-01-02T06:46:36.854Z,31.40
2019-01-02T06:47:16.473Z,31.40
2019-01-02T06:47:55.170Z,31.40
2019-01-02T06:48:34.654Z,31.40
2019-01-02T06:49:13.883Z,31.40
2019-01-02T06:49:52.632Z,31.40
2019-01-02T06:50:31.807Z,31.40
2019-01-02T06:51:10.451Z,31.40
2019-01-02T06:51:49.471Z,31.40
2019-01-02T06:52:28.721Z,31.40
2019-01-02T06:53:08.034Z,31.40
2019-01-02T06:53:46.551Z,31.40
2019-01-02T06:54:25.196Z,31.40
2019-01-02T06:55:04.355Z,31.40
2019-01-02T06:55:43.127Z,31.40
2019-01-02T06:56:21.813Z,31.40
2019-01-02T06:57:00.543Z,31.40
2019-01-02T06:57:39.424Z,31.40
2019-01-02T06:58:18.354Z,31.40
2019-01-02T06:58:57.547Z,31.40
2019-01-02T06:59:36.864Z,31.40
2019-01-02T07:00:18.473Z,31.40
2019-01-02T07:00:58.081Z,31.40
2019-01-02T07:01:37.239Z,31.40
2019-01-02T07:02:16.655Z,31.40
2019-01-02T07:03:15.117Z,31.50
2019-01-02T07:03:53.833Z,31.50
2019-01-02T07:04:32.736Z,31.50
2019-01-02T07:05:11.838Z,31.50
2019-01-02T07:05:50.616Z,31.60
2019-01-02T07:06:29.640Z,31.60
2019-01-02T07:07:09.038Z,31.60
2019-01-02T07:07:48.273Z,31.60
2019-01-02T07:08:27.354Z,31.60
2019-01-02T07:09:07.125Z,31.50
2019-01-02T07:09:46.211Z,31.50
2019-01-02T07:10:25.474Z,31.50
2019-01-02T07:11:04.164Z,31.50
2019-01-02T07:11:43.303Z,31.50
2019-01-02T07:12:21.851Z,31.50
2019-01-02T07:13:00.679Z,31.50
2019-01-02T07:13:39.676Z,31.50
2019-01-02T07:14:18.364Z,31.40
2019-01-02T07:14:57.105Z,31.40
2019-01-02T07:15:35.757Z,31.50
2019-01-02T07:16:14.696Z,31.50
2019-01-02T07:16:53.963Z,31.50
2019-01-02T07:17:32.705Z,31.50
2019-01-02T07:18:11.685Z,31.60
2019-01-02T07:18:50.814Z,31.60
2019-01-02T07:19:29.521Z,31.60
2019-01-02T07:20:09.481Z,31.60
2019-01-02T07:20:48.683Z,31.60
2019-01-02T07:21:27.926Z,31.60
2019-01-02T07:22:07.460Z,31.60
2019-01-02T07:22:46.962Z,31.60
2019-01-02T07:23:25.572Z,31.60
2019-01-02T07:24:04.722Z,31.60
2019-01-02T07:24:43.378Z,31.60
2019-01-02T07:25:21.959Z,31.60
2019-01-02T07:26:01.099Z,31.60
2019-01-02T07:26:40.242Z,31.60
2019-01-02T07:27:19.488Z,31.60
2019-01-02T07:28:00.495Z,31.60
2019-01-02T07:28:39.668Z,31.60
2019-01-02T07:29:19.136Z,31.60
2019-01-02T07:29:58.485Z,31.60
2019-01-02T07:30:38.289Z,31.60
2019-01-02T07:31:16.925Z,31.60
2019-01-02T07:31:55.828Z,31.50
2019-01-02T07:32:34.616Z,31.50
2019-01-02T07:33:13.387Z,31.60
2019-01-02T07:33:59.466Z,31.60
2019-01-02T07:35:04.740Z,31.60
2019-01-02T07:36:30.708Z,31.60
2019-01-02T07:37:58.198Z,31.50
2019-01-02T07:38:48.005Z,31.50
2019-01-02T07:40:14.646Z,31.60
2019-01-02T07:41:28.573Z,31.60
2019-01-02T07:42:57.005Z,31.60
2019-01-02T07:44:13.367Z,31.60
2019-01-02T07:45:33.341Z,31.70
2019-01-02T07:47:04.644Z,31.60
2019-01-02T07:48:28.570Z,31.60
2019-01-02T07:50:01.982Z,31.60
2019-01-02T07:51:31.987Z,31.60
2019-01-02T07:52:41.399Z,31.80
2019-01-02T07:53:58.081Z,31.70
2019-01-02T07:54:50.990Z,31.70
2019-01-02T07:56:03.194Z,31.80
2019-01-02T07:57:17.711Z,31.80
2019-01-02T07:58:20.358Z,31.80
2019-01-02T07:59:32.962Z,31.80
2019-01-02T08:00:46.848Z,31.80
2019-01-02T08:02:00.638Z,31.80
2019-01-02T08:03:25.825Z,31.80
2019-01-02T08:04:25.206Z,31.70
2019-01-02T08:05:38.724Z,31.60
2019-01-02T08:07:02.233Z,31.70
2019-01-02T08:08:14.663Z,31.70
2019-01-02T08:09:32.574Z,31.70
2019-01-02T08:11:05.886Z,31.70
2019-01-02T08:12:24.188Z,31.70
2019-01-02T08:13:29.521Z,31.70
2019-01-02T08:14:42.895Z,31.70
2019-01-02T08:16:09.832Z,31.70
2019-01-02T08:17:27.917Z,31.80
2019-01-02T08:18:31.385Z,31.80
2019-01-02T08:19:38.005Z,31.80
2019-01-02T08:20:47.556Z,31.80
2019-01-02T08:22:00.051Z,31.80
2019-01-02T08:23:12.463Z,31.80
2019-01-02T08:24:16.479Z,31.70
2019-01-02T08:25:40.082Z,31.70
2019-01-02T08:27:06.697Z,31.60
2019-01-02T08:28:07.988Z,31.70
2019-01-02T08:29:14.069Z,31.70
2019-01-02T08:30:14.325Z,31.70
2019-01-02T08:31:47.342Z,31.80
2019-01-02T08:33:26.584Z,31.70
2019-01-02T08:34:25.257Z,31.70
2019-01-02T08:35:46.594Z,31.60
2019-01-02T08:37:06.163Z,31.70
2019-01-02T08:38:21.114Z,31.70
2019-01-02T08:39:35.750Z,31.70
2019-01-02T08:40:43.072Z,31.80
2019-01-02T08:42:06.068Z,31.90
2019-01-02T08:43:24.372Z,31.80
2019-01-02T08:44:32.729Z,31.70
2019-01-02T08:46:02.988Z,31.80
2019-01-02T08:47:35.761Z,31.70
2019-01-02T08:48:43.794Z,31.70
2019-01-02T08:49:55.086Z,31.70
2019-01-02T08:51:12.226Z,31.60
2019-01-02T08:52:24.166Z,31.70
2019-01-02T08:53:52.032Z,31.60
2019-01-02T08:55:25.424Z,31.70
2019-01-02T08:56:37.536Z,31.70
2019-01-02T08:58:00.935Z,31.70
2019-01-02T08:58:50.981Z,31.70
2019-01-02T09:00:10.957Z,31.70
2019-01-02T09:01:32.317Z,31.70
2019-01-02T09:03:02.824Z,31.70
2019-01-02T09:04:08.401Z,31.80
2019-01-02T09:05:39.470Z,31.80
2019-01-02T09:06:56.328Z,31.70
2019-01-02T09:08:21.496Z,31.70
2019-01-02T09:09:45.999Z,31.70
2019-01-02T09:10:56.071Z,31.80
2019-01-02T09:12:03.128Z,31.80
2019-01-02T09:13:27.269Z,31.80
2019-01-02T09:14:39.461Z,31.70
2019-01-02T09:16:03.053Z,31.80